Time;durP1;ratioP1;P1;durP2;ratioP2;P2;SDS_P1;SDS_P2;PMS_P1;PMS_P2;Temp;Humidity;BMP_temperature;BMP_pressure;BME280_temperature;BME280_humidity;BME280_pressure;Samples;Min_cycle;Max_cycle;Signal;HPM_P1;HPM_P2
2023/04/02 00:01:38;;;;;;;1.30;0.50;;;10.70;90.40;;;;;;5010954;28;20384;-74
2023/04/02 00:04:10;;;;;;;0.82;0.40;;;10.60;90.60;;;;;;5007969;28;20046;-74
2023/04/02 00:06:43;;;;;;;1.50;0.60;;;10.80;90.50;;;;;;5010842;28;20448;-75
2023/04/02 00:09:12;;;;;;;1.08;0.35;;;10.90;90.70;;;;;;5011435;28;20030;-74
2023/04/02 00:11:53;;;;;;;1.05;0.40;;;10.80;90.60;;;;;;5011329;28;20038;-74
2023/04/02 00:14:26;;;;;;;1.13;0.40;;;10.60;90.80;;;;;;5004238;28;20028;-74
2023/04/02 00:16:54;;;;;;;0.75;0.32;;;10.60;90.80;;;;;;5011016;28;20053;-75
2023/04/02 00:19:59;;;;;;;0.77;0.30;;;10.50;91.00;;;;;;5010442;28;20033;-74
2023/04/02 00:22:31;;;;;;;1.33;0.52;;;10.50;91.00;;;;;;5008478;28;20028;-74
2023/04/02 00:25:00;;;;;;;1.17;0.30;;;10.50;91.00;;;;;;5009142;28;20040;-74
2023/04/02 00:27:26;;;;;;;1.02;0.50;;;10.50;91.30;;;;;;5010279;28;20113;-74
2023/04/02 00:29:56;;;;;;;1.23;0.30;;;10.50;91.20;;;;;;5011331;28;20113;-74
2023/04/02 00:32:26;;;;;;;2.08;0.52;;;10.40;91.30;;;;;;5008516;28;20038;-75
2023/04/02 00:34:53;;;;;;;0.73;0.40;;;10.40;91.50;;;;;;5007837;28;20018;-74
2023/04/02 00:37:22;;;;;;;1.60;0.43;;;10.30;91.60;;;;;;5011160;28;20025;-74
2023/04/02 00:39:54;;;;;;;0.70;0.45;;;10.30;91.60;;;;;;5010393;28;20037;-74
2023/04/02 00:42:21;;;;;;;1.13;0.40;;;10.50;91.30;;;;;;5006300;28;20114;-74
2023/04/02 00:44:48;;;;;;;0.70;0.30;;;10.50;91.40;;;;;;5025994;28;20060;-74
2023/04/02 00:47:26;;;;;;;1.80;0.65;;;10.50;91.50;;;;;;5010104;28;20124;-74
2023/04/02 00:50:05;;;;;;;0.95;0.38;;;10.50;91.50;;;;;;5008673;28;20030;-74
2023/04/02 00:52:32;;;;;;;1.05;0.40;;;10.50;91.40;;;;;;5007201;28;20033;-74
2023/04/02 00:55:09;;;;;;;1.40;0.63;;;10.60;91.40;;;;;;5010216;28;20037;-74
2023/04/02 00:57:35;;;;;;;1.55;0.57;;;10.50;91.40;;;;;;5011021;28;20053;-75
2023/04/02 01:00:14;;;;;;;0.93;0.40;;;10.50;91.50;;;;;;5011234;28;20026;-74
2023/04/02 01:02:41;;;;;;;0.95;0.38;;;10.40;91.60;;;;;;5007163;28;20056;-75
2023/04/02 01:05:16;;;;;;;1.17;0.30;;;10.40;91.60;;;;;;5010112;28;20033;-74
2023/04/02 01:08:00;;;;;;;1.38;0.47;;;10.60;91.30;;;;;;5007267;28;20069;-74
2023/04/02 01:10:54;;;;;;;1.45;0.40;;;10.50;91.70;;;;;;5009481;28;20061;-74
2023/04/02 01:13:35;;;;;;;0.85;0.38;;;10.40;91.80;;;;;;5006969;28;20026;-74
2023/04/02 01:16:31;;;;;;;0.60;0.45;;;10.30;92.20;;;;;;5009980;28;20033;-74
2023/04/02 01:19:12;;;;;;;1.25;0.65;;;10.20;92.20;;;;;;5009853;28;20054;-74
2023/04/02 01:21:40;;;;;;;2.88;1.00;;;10.30;92.00;;;;;;5010166;28;20038;-74
2023/04/02 01:24:09;;;;;;;0.95;0.40;;;10.40;91.80;;;;;;5009054;28;20029;-74
2023/04/02 01:27:04;;;;;;;3.22;0.82;;;10.50;91.80;;;;;;5008803;28;20045;-74
2023/04/02 01:29:57;;;;;;;1.73;0.82;;;10.50;91.80;;;;;;5009397;28;20484;-74
2023/04/02 01:32:25;;;;;;;1.60;0.52;;;10.60;91.70;;;;;;5009664;28;20515;-74
2023/04/02 01:34:53;;;;;;;0.77;0.43;;;10.50;91.70;;;;;;5011333;28;20034;-74
2023/04/02 01:37:37;;;;;;;2.25;0.60;;;10.60;91.50;;;;;;5012012;28;20030;-74
2023/04/02 01:40:29;;;;;;;1.50;0.80;;;10.70;91.50;;;;;;5012686;28;20508;-74
2023/04/02 01:43:28;;;;;;;3.33;1.15;;;10.70;91.50;;;;;;4993078;28;20034;-74
2023/04/02 01:45:56;;;;;;;1.45;0.57;;;10.80;91.40;;;;;;5008959;28;20045;-74
2023/04/02 01:48:28;;;;;;;1.45;0.68;;;10.90;91.20;;;;;;5014044;28;20030;-74
2023/04/02 01:50:57;;;;;;;1.08;0.38;;;10.90;91.30;;;;;;5010046;28;20030;-75
2023/04/02 01:53:26;;;;;;;0.80;0.35;;;10.90;91.10;;;;;;5013024;28;20029;-74
2023/04/02 01:55:56;;;;;;;2.00;0.65;;;10.70;91.50;;;;;;5012626;28;20030;-74
2023/04/02 01:58:25;;;;;;;0.40;0.32;;;10.80;91.10;;;;;;5013467;28;20041;-74
2023/04/02 02:01:12;;;;;;;2.15;0.90;;;10.90;91.00;;;;;;5012086;28;20056;-74
2023/04/02 02:03:41;;;;;;;1.58;0.75;;;10.70;91.30;;;;;;5012873;28;20515;-74
2023/04/02 02:06:12;;;;;;;2.45;0.63;;;10.70;91.40;;;;;;5011684;28;20076;-73
2023/04/02 02:08:37;;;;;;;2.97;1.25;;;10.70;91.30;;;;;;5010103;28;20041;-73
2023/04/02 02:11:03;;;;;;;2.60;0.70;;;10.50;91.60;;;;;;5011546;28;20033;-73
2023/04/02 02:13:30;;;;;;;1.45;0.52;;;10.50;91.60;;;;;;5009079;28;20183;-74
2023/04/02 02:15:58;;;;;;;1.60;0.60;;;10.40;91.70;;;;;;5013175;28;20026;-74
2023/04/02 02:18:24;;;;;;;1.77;0.77;;;10.20;91.80;;;;;;5013039;28;20033;-73
2023/04/02 02:20:51;;;;;;;2.55;1.13;;;10.00;92.20;;;;;;5012284;28;20026;-74
2023/04/02 02:23:17;;;;;;;1.05;0.50;;;9.70;92.60;;;;;;5010111;28;20030;-73
2023/04/02 02:25:45;;;;;;;2.20;0.90;;;9.60;92.80;;;;;;5013265;28;20088;-73
2023/04/02 02:28:20;;;;;;;1.60;0.60;;;9.40;93.10;;;;;;5013299;28;20025;-74
2023/04/02 02:30:55;;;;;;;2.63;0.70;;;9.20;93.40;;;;;;5013069;28;20044;-73
2023/04/02 02:33:24;;;;;;;1.33;0.43;;;9.10;93.40;;;;;;5010107;28;20022;-74
2023/04/02 02:36:09;;;;;;;1.95;0.80;;;9.10;93.50;;;;;;5011974;28;20033;-74
2023/04/02 02:38:40;;;;;;;2.22;0.85;;;9.00;93.70;;;;;;5011857;28;20584;-74
2023/04/02 02:41:17;;;;;;;2.25;0.80;;;8.90;93.90;;;;;;5010930;28;20033;-74
2023/04/02 02:43:59;;;;;;;2.10;1.13;;;9.00;93.70;;;;;;5010357;28;20073;-73
2023/04/02 02:46:27;;;;;;;1.45;0.60;;;9.00;93.60;;;;;;5011651;28;20484;-73
2023/04/02 02:48:56;;;;;;;1.80;1.25;;;8.90;93.30;;;;;;5012556;28;20026;-74
2023/04/02 02:51:38;;;;;;;2.28;0.80;;;9.00;93.20;;;;;;5012503;28;20037;-73
2023/04/02 02:54:06;;;;;;;4.35;1.48;;;9.10;93.10;;;;;;5011319;28;20029;-73
2023/04/02 02:56:36;;;;;;;4.10;1.00;;;9.10;93.20;;;;;;5007385;28;20357;-73
2023/04/02 02:59:04;;;;;;;1.65;0.85;;;9.10;93.00;;;;;;5012411;28;20387;-73
2023/04/02 03:01:30;;;;;;;1.20;0.60;;;9.10;93.20;;;;;;5011478;28;20412;-73
2023/04/02 03:03:56;;;;;;;0.50;0.30;;;9.00;93.30;;;;;;5007524;28;20030;-74
2023/04/02 03:06:23;;;;;;;1.25;0.40;;;9.00;93.10;;;;;;5007391;28;20113;-74
2023/04/02 03:08:55;;;;;;;2.10;0.50;;;9.00;93.20;;;;;;5007460;28;20109;-74
2023/04/02 03:11:34;;;;;;;1.20;0.47;;;9.20;93.20;;;;;;5003349;28;20065;-73
2023/04/02 03:14:27;;;;;;;1.40;0.70;;;9.10;93.30;;;;;;5007339;28;20030;-74
2023/04/02 03:17:02;;;;;;;4.45;0.65;;;9.20;93.30;;;;;;5006525;28;20453;-74
2023/04/02 03:19:49;;;;;;;2.63;0.52;;;9.20;93.20;;;;;;5003453;28;20050;-74
2023/04/02 03:22:21;;;;;;;1.55;0.70;;;9.00;93.40;;;;;;5003773;28;20112;-74
2023/04/02 03:25:01;;;;;;;2.25;0.50;;;8.90;93.70;;;;;;5007591;28;20041;-74
2023/04/02 03:27:35;;;;;;;1.20;0.47;;;8.70;93.70;;;;;;5004542;28;20041;-74
2023/04/02 03:30:28;;;;;;;1.70;0.68;;;8.50;93.90;;;;;;5003955;28;20499;-74
2023/04/02 03:33:02;;;;;;;0.63;0.20;;;8.30;94.30;;;;;;5004103;28;20131;-74
2023/04/02 03:35:34;;;;;;;1.85;0.63;;;8.40;94.20;;;;;;5007832;28;20025;-73
2023/04/02 03:38:14;;;;;;;1.90;0.88;;;8.40;94.10;;;;;;5007164;28;20506;-73
2023/04/02 03:40:57;;;;;;;0.75;0.30;;;8.40;94.20;;;;;;5004504;28;20079;-73
2023/04/02 03:43:26;;;;;;;1.30;0.40;;;8.40;94.10;;;;;;5006997;28;20046;-73
2023/04/02 03:46:02;;;;;;;1.55;0.57;;;8.50;93.90;;;;;;5006525;28;20072;-74
2023/04/02 03:48:41;;;;;;;0.77;0.35;;;8.40;94.10;;;;;;5003730;28;20026;-74
2023/04/02 03:51:17;;;;;;;0.75;0.30;;;8.40;93.80;;;;;;5004824;28;20070;-73
2023/04/02 03:53:44;;;;;;;0.93;0.40;;;8.30;93.80;;;;;;5004951;28;20512;-74
2023/04/02 03:56:30;;;;;;;1.20;0.40;;;8.50;93.60;;;;;;5007429;28;20121;-74
2023/04/02 03:59:25;;;;;;;1.15;0.30;;;8.70;93.20;;;;;;5003621;28;20040;-74
2023/04/02 04:02:25;;;;;;;0.22;0.20;;;8.50;93.40;;;;;;5007239;28;20034;-73
2023/04/02 04:04:53;;;;;;;1.20;0.40;;;8.30;93.60;;;;;;5002869;28;20042;-73
2023/04/02 04:07:33;;;;;;;1.55;0.40;;;8.50;93.60;;;;;;5002218;28;20040;-74
2023/04/02 04:10:01;;;;;;;1.17;0.32;;;8.40;93.60;;;;;;5003585;28;20399;-75
2023/04/02 04:12:38;;;;;;;0.90;0.25;;;8.50;93.60;;;;;;5006022;28;20470;-73
2023/04/02 04:15:07;;;;;;;1.60;0.73;;;8.40;93.60;;;;;;5006468;28;20034;-75
2023/04/02 04:17:50;;;;;;;0.55;0.30;;;8.60;93.20;;;;;;5005174;28;20121;-74
2023/04/02 04:20:44;;;;;;;0.65;0.30;;;8.30;93.50;;;;;;5005855;28;20029;-74
2023/04/02 04:23:18;;;;;;;1.52;0.40;;;7.90;94.10;;;;;;5005026;28;20030;-74
2023/04/02 04:25:48;;;;;;;0.73;0.30;;;8.20;93.60;;;;;;5005166;28;20972;-74
2023/04/02 04:28:29;;;;;;;0.65;0.30;;;8.00;93.70;;;;;;5004747;28;20068;-74
2023/04/02 04:31:16;;;;;;;0.47;0.20;;;8.10;93.70;;;;;;5006539;28;20101;-73
2023/04/02 04:33:45;;;;;;;1.60;0.40;;;8.00;94.00;;;;;;5002591;28;20043;-74
2023/04/02 04:36:52;;;;;;;0.90;0.38;;;8.10;93.90;;;;;;5002881;28;20434;-74
2023/04/02 04:39:29;;;;;;;1.20;0.40;;;8.30;93.70;;;;;;5004324;28;20156;-74
2023/04/02 04:41:58;;;;;;;0.60;0.30;;;8.40;93.40;;;;;;5004952;28;20022;-74
2023/04/02 04:44:27;;;;;;;0.30;0.30;;;8.40;93.30;;;;;;5003438;28;20073;-74
2023/04/02 04:47:02;;;;;;;0.50;0.30;;;8.40;93.20;;;;;;5003976;28;20034;-73
2023/04/02 04:49:34;;;;;;;1.35;0.40;;;8.40;93.20;;;;;;5006283;28;20052;-74
2023/04/02 04:52:10;;;;;;;1.00;0.50;;;8.40;93.10;;;;;;5005741;28;20132;-74
2023/04/02 04:54:38;;;;;;;0.73;0.20;;;8.20;93.10;;;;;;5005278;28;20560;-74
2023/04/02 04:57:16;;;;;;;2.03;0.43;;;8.30;93.20;;;;;;5006525;28;20059;-74
2023/04/02 04:59:48;;;;;;;0.52;0.38;;;7.90;93.60;;;;;;5004237;28;20029;-74
2023/04/02 05:02:22;;;;;;;0.90;0.43;;;7.90;94.00;;;;;;5006846;28;20044;-74
2023/04/02 05:04:50;;;;;;;1.85;0.35;;;7.80;94.10;;;;;;5002591;28;20052;-74
2023/04/02 05:07:35;;;;;;;1.73;0.30;;;7.80;94.10;;;;;;5004902;28;20549;-73
2023/04/02 05:10:29;;;;;;;0.43;0.20;;;7.90;94.00;;;;;;5003423;28;20368;-74
2023/04/02 05:13:18;;;;;;;0.63;0.20;;;8.00;93.90;;;;;;4997175;28;20041;-74
2023/04/02 05:16:02;;;;;;;0.65;0.30;;;7.90;93.70;;;;;;4988590;28;20038;-74
2023/04/02 05:18:36;;;;;;;0.73;0.30;;;8.30;93.40;;;;;;5002023;28;20109;-72
2023/04/02 05:21:17;;;;;;;0.73;0.10;;;8.40;93.20;;;;;;5003456;28;20539;-73
2023/04/02 05:23:51;;;;;;;0.32;0.28;;;8.20;93.00;;;;;;4998326;28;20044;-74
2023/04/02 05:26:39;;;;;;;0.70;0.30;;;8.20;92.80;;;;;;5001403;28;20096;-73
2023/04/02 05:29:12;;;;;;;0.40;0.10;;;8.20;93.20;;;;;;5001986;28;20033;-74
2023/04/02 05:32:16;;;;;;;0.55;0.20;;;8.30;93.00;;;;;;4999133;28;20061;-75
2023/04/02 05:34:47;;;;;;;0.65;0.30;;;8.20;92.90;;;;;;4999154;28;20042;-75
2023/04/02 05:37:18;;;;;;;1.45;0.35;;;8.30;93.30;;;;;;5001242;28;20030;-75
2023/04/02 05:39:45;;;;;;;0.77;0.15;;;8.20;93.00;;;;;;5001871;28;20038;-76
2023/04/02 05:42:27;;;;;;;1.08;0.40;;;8.10;93.20;;;;;;5001589;28;20087;-76
2023/04/02 05:45:20;;;;;;;0.73;0.20;;;8.20;93.20;;;;;;4996547;28;20382;-75
2023/04/02 05:47:50;;;;;;;1.02;0.38;;;8.30;92.80;;;;;;5000912;28;20033;-75
2023/04/02 05:50:39;;;;;;;1.08;0.43;;;8.20;93.00;;;;;;5008131;28;20068;-74
2023/04/02 05:53:13;;;;;;;0.45;0.20;;;8.40;93.20;;;;;;4996084;28;20080;-76
2023/04/02 05:55:57;;;;;;;1.17;0.40;;;8.40;93.40;;;;;;5000291;28;20034;-75
2023/04/02 05:58:37;;;;;;;0.32;0.30;;;8.40;93.10;;;;;;5002169;28;20021;-75
2023/04/02 06:01:41;;;;;;;0.82;0.35;;;8.20;93.20;;;;;;5005456;28;20045;-75
2023/04/02 06:04:32;;;;;;;2.13;0.40;;;8.20;93.20;;;;;;5019347;28;20034;-75
2023/04/02 06:07:04;;;;;;;0.75;0.30;;;8.00;93.50;;;;;;5000445;28;20034;-76
2023/04/02 06:09:59;;;;;;;1.42;0.40;;;8.40;93.50;;;;;;5002991;28;20452;-76
2023/04/02 06:12:40;;;;;;;1.33;0.40;;;8.60;93.10;;;;;;4987421;28;20046;-75
2023/04/02 06:15:15;;;;;;;1.92;0.57;;;8.90;92.90;;;;;;5000111;28;20383;-75
2023/04/02 06:17:47;;;;;;;0.57;0.25;;;8.90;92.90;;;;;;4999781;28;20077;-75
2023/04/02 06:20:16;;;;;;;0.68;0.20;;;9.10;92.70;;;;;;5005618;28;20061;-75
2023/04/02 06:22:46;;;;;;;1.23;0.35;;;9.10;92.70;;;;;;5004966;28;20483;-74
2023/04/02 06:25:27;;;;;;;1.67;0.52;;;9.20;92.40;;;;;;5007657;28;20377;-73
2023/04/02 06:27:55;;;;;;;2.92;0.50;;;9.20;92.40;;;;;;5003098;28;20053;-74
2023/04/02 06:30:33;;;;;;;0.60;0.22;;;9.20;92.40;;;;;;5004824;28;20108;-74
2023/04/02 06:32:59;;;;;;;1.13;0.50;;;9.10;92.50;;;;;;5006369;28;20042;-74
2023/04/02 06:35:25;;;;;;;1.13;0.43;;;9.10;92.60;;;;;;5012828;28;20556;-74
2023/04/02 06:37:54;;;;;;;1.15;0.30;;;9.10;92.50;;;;;;5008646;28;20033;-75
2023/04/02 06:40:35;;;;;;;1.20;0.38;;;9.20;92.40;;;;;;5016479;28;20029;-74
2023/04/02 06:43:10;;;;;;;0.45;0.20;;;9.30;92.30;;;;;;5005641;28;20619;-74
2023/04/02 06:45:40;;;;;;;1.42;0.45;;;9.40;92.20;;;;;;5005519;28;20060;-74
2023/04/02 06:48:15;;;;;;;1.38;0.85;;;9.30;92.60;;;;;;5005774;28;20479;-75
2023/04/02 06:50:43;;;;;;;;;;;9.40;93.10;;;;;;5006443;28;20096;-74
2023/04/02 06:53:25;;;;;;;1.08;0.30;;;9.40;92.60;;;;;;5008514;28;19923;-74
2023/04/02 06:56:30;;;;;;;1.80;0.77;;;9.60;92.50;;;;;;5005506;28;20037;-74
2023/04/02 06:58:56;;;;;;;0.68;0.30;;;9.60;92.10;;;;;;4997322;28;20030;-74
2023/04/02 07:01:26;;;;;;;1.98;0.40;;;9.70;91.90;;;;;;5006280;28;20137;-73
2023/04/02 07:03:53;;;;;;;2.22;0.55;;;9.90;91.60;;;;;;4989562;28;20031;-75
2023/04/02 07:06:20;;;;;;;1.27;0.28;;;10.00;91.60;;;;;;5003533;28;20134;-74
2023/04/02 07:08:46;;;;;;;1.20;0.60;;;10.00;91.20;;;;;;5006348;28;20109;-74
2023/04/02 07:11:17;;;;;;;1.23;0.32;;;10.10;91.30;;;;;;5008614;28;20120;-74
2023/04/02 07:13:44;;;;;;;1.77;0.75;;;10.20;91.60;;;;;;5005492;28;20442;-75
2023/04/02 07:16:14;;;;;;;0.55;0.22;;;10.50;91.30;;;;;;5006343;28;20064;-74
2023/04/02 07:18:40;;;;;;;1.33;0.57;;;11.20;90.60;;;;;;5010254;28;20030;-76
2023/04/02 07:21:06;;;;;;;1.58;0.60;;;11.80;91.00;;;;;;5001025;28;20033;-74
2023/04/02 07:23:32;;;;;;;3.80;0.65;;;11.50;90.90;;;;;;5005966;28;20548;-75
2023/04/02 07:25:58;;;;;;;31.95;8.35;;;11.20;91.20;;;;;;5009350;28;20121;-76
2023/04/02 07:28:24;;;;;;;7.18;3.83;;;11.00;92.00;;;;;;5003944;28;20275;-74
2023/04/02 07:30:52;;;;;;;3.03;1.15;;;10.90;91.60;;;;;;5005362;28;20038;-74
2023/04/02 07:33:23;;;;;;;1.05;0.50;;;10.80;92.00;;;;;;5004952;28;20519;-74
2023/04/02 07:35:50;;;;;;;3.25;1.08;;;10.80;92.50;;;;;;4998740;28;20030;-74
2023/04/02 07:38:16;;;;;;;1.45;0.55;;;10.80;91.90;;;;;;5001357;28;20038;-74
2023/04/02 07:40:42;;;;;;;0.90;0.55;;;11.00;91.50;;;;;;5005531;28;20507;-74
2023/04/02 07:43:08;;;;;;;1.80;0.47;;;11.00;91.50;;;;;;5002876;28;20067;-73
2023/04/02 07:45:33;;;;;;;0.80;0.50;;;11.10;90.70;;;;;;5004910;28;20036;-74
2023/04/02 07:48:11;;;;;;;2.50;0.30;;;11.30;90.50;;;;;;5005878;28;20542;-74
2023/04/02 07:50:36;;;;;;;1.35;0.55;;;11.40;90.60;;;;;;5003472;28;20041;-74
2023/04/02 07:53:02;;;;;;;1.08;0.50;;;11.40;90.80;;;;;;5003811;28;20449;-75
2023/04/02 07:55:28;;;;;;;1.90;0.60;;;11.40;91.00;;;;;;4997852;28;20121;-74
2023/04/02 07:57:57;;;;;;;0.88;0.32;;;11.40;91.10;;;;;;5000970;28;20038;-75
2023/04/02 08:00:24;;;;;;;19.88;2.03;;;11.40;90.40;;;;;;5002202;28;20025;-74
2023/04/02 08:02:50;;;;;;;0.82;0.45;;;11.60;89.90;;;;;;4998019;28;20036;-74
2023/04/02 08:05:16;;;;;;;1.92;1.00;;;11.60;91.30;;;;;;4998918;28;20104;-72
2023/04/02 08:07:43;;;;;;;0.68;0.40;;;11.50;90.80;;;;;;5002255;28;20018;-72
2023/04/02 08:10:10;;;;;;;0.90;0.60;;;11.40;90.50;;;;;;5008348;28;20041;-74
2023/04/02 08:12:37;;;;;;;1.15;0.70;;;11.50;90.30;;;;;;5000970;28;20045;-74
2023/04/02 08:15:05;;;;;;;1.27;0.45;;;11.40;90.60;;;;;;4997018;28;20063;-74
2023/04/02 08:17:32;;;;;;;0.77;0.43;;;11.60;90.90;;;;;;4997989;28;20034;-74
2023/04/02 08:20:01;;;;;;;1.50;0.50;;;11.60;89.90;;;;;;5003016;28;20068;-74
2023/04/02 08:22:27;;;;;;;106.05;6.72;;;11.90;89.80;;;;;;5000886;28;20045;-75
2023/04/02 08:24:55;;;;;;;6.43;1.23;;;12.10;90.20;;;;;;4994652;28;20041;-75
2023/04/02 08:27:21;;;;;;;1.17;0.50;;;11.90;89.50;;;;;;4990971;28;20044;-75
2023/04/02 08:29:47;;;;;;;1.50;0.40;;;11.80;88.90;;;;;;4997378;28;20089;-75
2023/04/02 08:32:16;;;;;;;1.13;0.65;;;11.90;88.70;;;;;;5003776;28;20143;-76
2023/04/02 08:34:43;;;;;;;1.48;0.50;;;12.10;88.40;;;;;;4999066;28;20026;-76
2023/04/02 08:37:12;;;;;;;1.35;0.50;;;12.50;87.70;;;;;;5005147;28;20111;-76
2023/04/02 08:39:38;;;;;;;1.55;0.60;;;12.60;88.20;;;;;;5004271;28;20029;-77
2023/04/02 08:42:19;;;;;;;1.90;0.73;;;12.70;89.60;;;;;;4986644;28;20080;-76
2023/04/02 08:45:00;;;;;;;0.73;0.32;;;12.60;86.80;;;;;;5000505;28;20054;-76
2023/04/02 08:47:35;;;;;;;1.23;0.52;;;12.80;85.10;;;;;;5000887;28;20029;-76
2023/04/02 08:50:06;;;;;;;1.65;0.60;;;12.80;88.00;;;;;;5013593;28;20623;-76
2023/04/02 08:52:36;;;;;;;2.10;0.77;;;12.90;84.80;;;;;;4999893;28;20096;-77
2023/04/02 08:55:03;;;;;;;0.98;0.40;;;12.80;85.20;;;;;;5003377;28;20642;-76
2023/04/02 08:57:58;;;;;;;1.05;0.47;;;12.70;84.50;;;;;;5006129;28;20041;-76
2023/04/02 09:00:35;;;;;;;0.68;0.28;;;12.80;84.00;;;;;;5005709;28;20038;-77
2023/04/02 09:03:18;;;;;;;1.02;0.60;;;12.90;83.50;;;;;;5003228;28;20118;-76
2023/04/02 09:05:46;;;;;;;2.67;0.82;;;13.00;84.10;;;;;;5004427;28;20072;-77
2023/04/02 09:08:26;;;;;;;1.23;0.45;;;16.60;81.00;;;;;;5000672;28;20447;-77
2023/04/02 09:11:04;;;;;;;1.40;0.50;;;19.80;76.60;;;;;;5003264;28;20026;-77
2023/04/02 09:13:33;;;;;;;1.15;0.47;;;20.90;74.60;;;;;;5005448;28;20042;-76
2023/04/02 09:16:11;;;;;;;2.83;0.40;;;19.10;74.70;;;;;;5005417;28;20048;-77
2023/04/02 09:18:38;;;;;;;0.95;0.47;;;20.70;74.50;;;;;;5005184;28;20030;-77
2023/04/02 09:21:35;;;;;;;2.83;0.57;;;20.60;73.50;;;;;;4999657;28;20107;-77
2023/04/02 09:24:01;;;;;;;6.57;0.55;;;20.80;73.20;;;;;;5001040;28;20064;-77
2023/04/02 09:26:32;;;;;;;1.83;0.70;;;20.50;71.80;;;;;;5004768;28;20030;-77
2023/04/02 09:29:23;;;;;;;0.98;0.45;;;20.90;71.50;;;;;;5003842;28;20034;-78
2023/04/02 09:32:05;;;;;;;1.25;0.57;;;21.10;70.20;;;;;;5001250;28;20069;-77
2023/04/02 09:34:35;;;;;;;2.03;0.95;;;21.30;70.20;;;;;;4986234;28;20030;-77
2023/04/02 09:37:15;;;;;;;1.65;0.60;;;21.40;70.00;;;;;;5004749;28;20034;-77
2023/04/02 09:39:40;;;;;;;2.20;0.40;;;20.50;70.30;;;;;;5002414;28;20073;-77
2023/04/02 09:42:26;;;;;;;1.20;0.38;;;21.30;70.20;;;;;;5006055;28;20597;-77
2023/04/02 09:44:52;;;;;;;0.65;0.30;;;21.30;69.20;;;;;;5007957;28;20050;-78
2023/04/02 09:47:25;;;;;;;1.95;0.65;;;21.00;69.40;;;;;;5022716;28;20548;-77
2023/04/02 09:49:51;;;;;;;1.50;0.98;;;21.20;69.70;;;;;;5005318;28;20070;-77
2023/04/02 09:52:28;;;;;;;0.57;0.20;;;20.50;69.60;;;;;;5006612;28;20567;-77
2023/04/02 09:55:23;;;;;;;0.90;0.35;;;19.30;68.30;;;;;;5011459;28;20030;-78
2023/04/02 09:57:49;;;;;;;1.85;0.50;;;18.00;70.30;;;;;;5008149;28;20034;-77
2023/04/02 10:00:21;;;;;;;0.75;0.30;;;17.10;70.40;;;;;;4998632;28;20045;-77
2023/04/02 10:03:01;;;;;;;1.25;0.40;;;16.80;71.50;;;;;;5009683;28;20083;-77
2023/04/02 10:05:27;;;;;;;1.08;0.35;;;16.60;72.60;;;;;;5009013;28;20376;-78
2023/04/02 10:08:04;;;;;;;2.10;0.30;;;16.40;72.60;;;;;;5011805;28;20500;-76
2023/04/02 10:10:35;;;;;;;0.85;0.38;;;16.20;73.20;;;;;;5012158;28;20595;-77
2023/04/02 10:13:27;;;;;;;0.77;0.35;;;16.40;75.30;;;;;;5006687;28;20041;-78
2023/04/02 10:15:55;;;;;;;1.83;0.60;;;16.40;74.50;;;;;;5000850;28;20037;-77
2023/04/02 10:18:28;;;;;;;0.40;0.15;;;16.70;72.70;;;;;;5011093;28;20101;-77
2023/04/02 10:20:56;;;;;;;0.80;0.10;;;17.10;72.40;;;;;;5008857;28;20030;-77
2023/04/02 10:23:27;;;;;;;1.52;0.20;;;17.00;71.10;;;;;;5010201;28;20049;-76
2023/04/02 10:26:10;;;;;;;0.98;0.10;;;16.80;70.90;;;;;;5009248;28;20393;-77
2023/04/02 10:28:42;;;;;;;0.80;0.10;;;16.80;71.60;;;;;;5005983;28;20038;-77
2023/04/02 10:31:16;;;;;;;4.82;0.55;;;17.00;71.40;;;;;;5004803;28;20424;-76
2023/04/02 10:33:46;;;;;;;;;;;16.90;70.80;;;;;;5011561;28;20032;-77
2023/04/02 10:36:43;;;;;;;0.90;0.20;;;17.10;71.30;;;;;;5007096;28;19964;-76
2023/04/02 10:39:22;;;;;;;0.10;0.10;;;17.20;71.00;;;;;;5010495;28;20033;-77
2023/04/02 10:42:06;;;;;;;4.43;1.00;;;17.30;71.10;;;;;;5006131;28;20029;-77
2023/04/02 10:44:44;;;;;;;1.15;0.20;;;17.40;71.00;;;;;;4995638;28;20096;-75
2023/04/02 10:47:26;;;;;;;0.82;0.10;;;17.50;70.40;;;;;;5009625;28;20045;-76
2023/04/02 10:50:10;;;;;;;1.35;0.40;;;17.00;69.40;;;;;;5011477;28;20034;-75
2023/04/02 10:52:39;;;;;;;;;;;16.70;69.70;;;;;;5007686;28;20041;-75
2023/04/02 10:55:27;;;;;;;0.35;0.17;;;16.60;70.50;;;;;;5009936;28;19910;-74
2023/04/02 10:57:58;;;;;;;20.83;1.83;;;16.70;70.20;;;;;;4998311;28;20045;-76
2023/04/02 11:00:30;;;;;;;0.30;0.08;;;17.00;70.60;;;;;;5007943;28;20365;-75
2023/04/02 11:02:58;;;;;;;0.95;0.40;;;16.90;68.70;;;;;;5011031;28;20214;-76
2023/04/02 11:05:43;;;;;;;4.80;0.50;;;17.10;69.00;;;;;;5009963;28;20037;-76
2023/04/02 11:08:20;;;;;;;5.00;0.30;;;17.10;69.10;;;;;;5007608;28;20046;-73
2023/04/02 11:11:00;;;;;;;1.13;0.43;;;17.00;68.30;;;;;;5008482;28;20034;-74
2023/04/02 11:13:49;;;;;;;0.22;0.10;;;17.00;68.80;;;;;;5011028;28;20026;-74
2023/04/02 11:16:15;;;;;;;0.13;0.10;;;17.30;71.30;;;;;;5000533;28;20048;-76
2023/04/02 11:18:43;;;;;;;1.02;0.20;;;17.20;67.50;;;;;;5008429;28;20105;-78
2023/04/02 11:21:38;;;;;;;1.65;0.73;;;17.20;67.20;;;;;;5001485;28;20116;-76
2023/04/02 11:24:04;;;;;;;4.28;1.15;;;17.60;72.80;;;;;;5009294;28;20068;-74
2023/04/02 11:26:32;;;;;;;4.25;1.05;;;17.20;74.50;;;;;;5006266;28;20034;-75
2023/04/02 11:29:11;;;;;;;5.68;1.52;;;17.00;74.70;;;;;;5005893;28;20032;-76
2023/04/02 11:31:36;;;;;;;1.92;0.95;;;17.20;75.30;;;;;;5004510;28;20038;-75
2023/04/02 11:34:02;;;;;;;3.25;1.48;;;17.20;75.50;;;;;;4994036;28;20093;-76
2023/04/02 11:36:51;;;;;;;4.28;1.42;;;17.40;77.00;;;;;;5004125;28;20030;-76
2023/04/02 11:39:45;;;;;;;3.35;1.30;;;17.30;77.30;;;;;;4999823;28;20029;-76
2023/04/02 11:42:21;;;;;;;4.50;1.27;;;17.20;77.00;;;;;;5003624;28;20032;-76
2023/04/02 11:44:46;;;;;;;3.42;1.52;;;16.80;79.00;;;;;;4992254;28;20099;-76
2023/04/02 11:47:26;;;;;;;4.85;1.75;;;16.50;78.20;;;;;;5005228;28;20030;-76
2023/04/02 11:49:57;;;;;;;7.45;2.38;;;16.50;78.80;;;;;;5006464;28;20040;-76
2023/04/02 11:52:26;;;;;;;1.63;0.82;;;16.30;79.40;;;;;;5003102;28;20080;-76
2023/04/02 11:55:00;;;;;;;2.80;1.10;;;16.50;78.10;;;;;;5005549;28;20041;-76
2023/04/02 11:57:50;;;;;;;2.15;1.00;;;16.90;78.40;;;;;;5001575;28;20088;-76
2023/04/02 12:00:16;;;;;;;4.30;1.45;;;16.90;76.70;;;;;;4998329;28;20413;-76
2023/04/02 12:03:19;;;;;;;2.00;1.17;;;17.30;77.90;;;;;;5003585;28;20037;-75
2023/04/02 12:05:57;;;;;;;2.28;0.90;;;17.60;77.90;;;;;;5000865;28;20038;-76
2023/04/02 12:08:29;;;;;;;4.78;3.03;;;17.60;77.70;;;;;;5001361;28;20029;-76
2023/04/02 12:11:00;;;;;;;4.68;1.52;;;17.60;77.50;;;;;;4999181;28;20523;-75
2023/04/02 12:13:38;;;;;;;2.53;1.48;;;17.40;77.00;;;;;;5003283;28;20038;-75
2023/04/02 12:16:09;;;;;;;3.00;1.20;;;17.50;79.90;;;;;;5003179;28;20557;-75
2023/04/02 12:18:40;;;;;;;2.47;1.20;;;17.50;77.90;;;;;;5003102;28;20034;-76
2023/04/02 12:21:06;;;;;;;1.80;0.85;;;17.50;79.30;;;;;;5002909;28;20037;-76
2023/04/02 12:23:35;;;;;;;3.58;1.05;;;17.80;77.50;;;;;;5002938;28;20037;-75
2023/04/02 12:26:07;;;;;;;1.42;0.57;;;17.80;78.60;;;;;;4998808;28;20029;-76
2023/04/02 12:28:36;;;;;;;2.55;0.95;;;17.80;78.80;;;;;;5003335;28;20037;-76
2023/04/02 12:31:08;;;;;;;2.58;0.80;;;17.50;79.30;;;;;;5002725;28;20122;-76
2023/04/02 12:33:36;;;;;;;1.67;0.70;;;17.10;78.20;;;;;;5002613;28;20460;-76
2023/04/02 12:36:22;;;;;;;3.05;0.88;;;17.30;78.70;;;;;;4994763;28;20351;-76
2023/04/02 12:38:54;;;;;;;2.42;0.80;;;17.50;78.60;;;;;;5002393;28;20471;-76
2023/04/02 12:41:30;;;;;;;1.60;0.68;;;17.80;78.30;;;;;;4997888;28;20057;-76
2023/04/02 12:44:00;;;;;;;1.65;0.90;;;17.90;78.70;;;;;;5001808;28;20054;-76
2023/04/02 12:46:28;;;;;;;4.57;1.20;;;18.00;79.80;;;;;;5005122;28;20061;-75
2023/04/02 12:48:57;;;;;;;4.93;1.05;;;17.70;79.10;;;;;;5004937;28;20029;-76
2023/04/02 12:51:23;;;;;;;3.20;0.90;;;17.80;77.80;;;;;;5005396;28;20508;-76
2023/04/02 12:53:51;;;;;;;2.47;0.93;;;17.90;77.50;;;;;;5003726;28;20123;-74
2023/04/02 12:56:21;;;;;;;1.75;1.10;;;17.40;77.50;;;;;;5002673;28;20033;-74
2023/04/02 12:58:59;;;;;;;1.83;0.70;;;17.50;78.20;;;;;;5006019;28;20036;-75
2023/04/02 13:01:27;;;;;;;2.35;0.70;;;17.50;77.80;;;;;;5002825;28;20491;-75
2023/04/02 13:04:03;;;;;;;1.45;0.70;;;17.60;77.30;;;;;;5003612;28;20412;-75
2023/04/02 13:06:29;;;;;;;3.40;0.82;;;17.60;77.00;;;;;;5005021;28;20041;-75
2023/04/02 13:08:56;;;;;;;1.83;0.80;;;17.70;77.30;;;;;;5004281;28;20034;-75
2023/04/02 13:11:31;;;;;;;2.10;0.88;;;17.80;78.40;;;;;;5003672;28;20049;-75
2023/04/02 13:14:01;;;;;;;3.65;1.48;;;18.00;78.70;;;;;;4998360;28;20093;-75
2023/04/02 13:16:32;;;;;;;2.78;1.23;;;18.20;77.80;;;;;;4992249;28;20034;-74
2023/04/02 13:19:16;;;;;;;6.60;1.98;;;18.40;77.30;;;;;;5005490;28;20034;-75
2023/04/02 13:21:43;;;;;;;4.20;1.83;;;18.80;77.00;;;;;;5005254;28;20029;-74
2023/04/02 13:24:35;;;;;;;2.20;1.10;;;19.20;76.90;;;;;;5005952;28;20315;-74
2023/04/02 13:27:02;;;;;;;21.35;4.45;;;19.30;75.50;;;;;;5002772;28;20073;-74
2023/04/02 13:29:29;;;;;;;6.07;2.22;;;19.00;75.50;;;;;;5009884;28;20105;-74